sensor_id;sensor_type;location;lat;lon;timestamp;temperature;humidity
22676;DHT22;12521;43.310;21.876;2022-08-27T00:03:01;21.2;96.0
22676;DHT22;12521;43.310;21.876;2022-08-27T00:07:39;21.2;96.0
22676;DHT22;12521;43.310;21.876;2022-08-27T00:12:20;21.1;96.0
22676;DHT22;12521;43.310;21.876;2022-08-27T00:16:57;21.1;96.0
22676;DHT22;12521;43.310;21.876;2022-08-27T00:21:33;21.1;96.0
22676;DHT22;12521;43.310;21.876;2022-08-27T00:26:10;21.0;96.0
22676;DHT22;12521;43.310;21.876;2022-08-27T00:30:49;21.0;96.0
22676;DHT22;12521;43.310;21.876;2022-08-27T00:35:26;20.8;96.0
22676;DHT22;12521;43.310;21.876;2022-08-27T00:40:05;20.8;96.0
22676;DHT22;12521;43.310;21.876;2022-08-27T00:44:56;20.7;96.0
22676;DHT22;12521;43.310;21.876;2022-08-27T00:49:36;20.7;96.0
22676;DHT22;12521;43.310;21.876;2022-08-27T00:54:29;20.6;96.0
22676;DHT22;12521;43.310;21.876;2022-08-27T00:59:10;20.6;96.0
22676;DHT22;12521;43.310;21.876;2022-08-27T01:03:54;20.6;96.0
22676;DHT22;12521;43.310;21.876;2022-08-27T01:08:51;20.6;96.0
22676;DHT22;12521;43.310;21.876;2022-08-27T01:13:46;20.5;96.0
22676;DHT22;12521;43.310;21.876;2022-08-27T01:18:24;20.5;96.0
22676;DHT22;12521;43.310;21.876;2022-08-27T01:23:19;20.4;96.0
22676;DHT22;12521;43.310;21.876;2022-08-27T01:28:30;20.4;96.0
22676;DHT22;12521;43.310;21.876;2022-08-27T01:33:15;20.3;96.0
22676;DHT22;12521;43.310;21.876;2022-08-27T01:37:57;20.3;96.0
22676;DHT22;12521;43.310;21.876;2022-08-27T01:42:36;20.2;96.0
22676;DHT22;12521;43.310;21.876;2022-08-27T01:47:27;20.2;96.0
22676;DHT22;12521;43.310;21.876;2022-08-27T01:52:05;20.2;96.0
22676;DHT22;12521;43.310;21.876;2022-08-27T01:56:43;20.0;96.0
22676;DHT22;12521;43.310;21.876;2022-08-27T02:01:20;20.0;96.0
22676;DHT22;12521;43.310;21.876;2022-08-27T02:05:58;19.9;96.0
22676;DHT22;12521;43.310;21.876;2022-08-27T02:10:49;19.9;96.0
22676;DHT22;12521;43.310;21.876;2022-08-27T02:15:27;19.8;96.0
22676;DHT22;12521;43.310;21.876;2022-08-27T02:20:07;19.8;96.0
22676;DHT22;12521;43.310;21.876;2022-08-27T02:24:52;19.6;96.0
22676;DHT22;12521;43.310;21.876;2022-08-27T02:29:29;19.6;96.0
22676;DHT22;12521;43.310;21.876;2022-08-27T02:34:06;19.3;96.0
22676;DHT22;12521;43.310;21.876;2022-08-27T02:38:43;19.3;96.0
22676;DHT22;12521;43.310;21.876;2022-08-27T02:43:20;19.3;96.0
22676;DHT22;12521;43.310;21.876;2022-08-27T02:47:57;19.3;96.0
22676;DHT22;12521;43.310;21.876;2022-08-27T02:52:34;19.3;96.0
22676;DHT22;12521;43.310;21.876;2022-08-27T02:57:12;19.3;96.0
22676;DHT22;12521;43.310;21.876;2022-08-27T03:01:48;19.3;96.0
22676;DHT22;12521;43.310;21.876;2022-08-27T03:06:25;19.4;96.0
22676;DHT22;12521;43.310;21.876;2022-08-27T03:11:01;19.4;96.0
22676;DHT22;12521;43.310;21.876;2022-08-27T03:15:40;19.5;96.0
22676;DHT22;12521;43.310;21.876;2022-08-27T03:20:17;19.5;96.0
22676;DHT22;12521;43.310;21.876;2022-08-27T03:24:55;19.4;96.0
22676;DHT22;12521;43.310;21.876;2022-08-27T03:29:31;19.4;96.0
22676;DHT22;12521;43.310;21.876;2022-08-27T03:34:09;19.3;96.0
22676;DHT22;12521;43.310;21.876;2022-08-27T03:38:46;19.3;96.0
22676;DHT22;12521;43.310;21.876;2022-08-27T03:43:23;19.2;96.0
22676;DHT22;12521;43.310;21.876;2022-08-27T03:48:00;19.2;96.0
22676;DHT22;12521;43.310;21.876;2022-08-27T03:52:39;19.0;96.0
22676;DHT22;12521;43.310;21.876;2022-08-27T03:57:16;19.0;96.0
22676;DHT22;12521;43.310;21.876;2022-08-27T04:01:54;19.0;96.0
22676;DHT22;12521;43.310;21.876;2022-08-27T04:06:32;19.0;96.0
22676;DHT22;12521;43.310;21.876;2022-08-27T04:11:11;19.0;96.0
22676;DHT22;12521;43.310;21.876;2022-08-27T04:15:50;18.9;96.0
22676;DHT22;12521;43.310;21.876;2022-08-27T04:20:29;18.9;96.0
22676;DHT22;12521;43.310;21.876;2022-08-27T04:25:07;18.9;96.0
22676;DHT22;12521;43.310;21.876;2022-08-27T04:29:45;18.9;96.0
22676;DHT22;12521;43.310;21.876;2022-08-27T04:34:24;18.9;96.0
22676;DHT22;12521;43.310;21.876;2022-08-27T04:39:02;18.9;96.0
22676;DHT22;12521;43.310;21.876;2022-08-27T04:43:39;18.9;96.0
22676;DHT22;12521;43.310;21.876;2022-08-27T04:48:17;18.9;96.0
22676;DHT22;12521;43.310;21.876;2022-08-27T04:52:55;18.9;96.0
22676;DHT22;12521;43.310;21.876;2022-08-27T04:57:32;18.9;96.0
22676;DHT22;12521;43.310;21.876;2022-08-27T05:02:09;18.9;96.0
22676;DHT22;12521;43.310;21.876;2022-08-27T05:06:47;19.0;96.0
22676;DHT22;12521;43.310;21.876;2022-08-27T05:11:26;19.0;96.0
22676;DHT22;12521;43.310;21.876;2022-08-27T05:16:07;19.0;96.0
22676;DHT22;12521;43.310;21.876;2022-08-27T05:20:57;19.0;96.0
22676;DHT22;12521;43.310;21.876;2022-08-27T05:25:37;18.9;96.0
22676;DHT22;12521;43.310;21.876;2022-08-27T05:30:24;18.9;96.0
22676;DHT22;12521;43.310;21.876;2022-08-27T05:35:02;18.8;96.0
22676;DHT22;12521;43.310;21.876;2022-08-27T05:39:41;18.8;96.0
22676;DHT22;12521;43.310;21.876;2022-08-27T05:44:18;19.0;96.0
22676;DHT22;12521;43.310;21.876;2022-08-27T05:48:55;19.0;96.0
22676;DHT22;12521;43.310;21.876;2022-08-27T05:53:36;19.3;96.0
22676;DHT22;12521;43.310;21.876;2022-08-27T05:58:14;19.3;96.0
22676;DHT22;12521;43.310;21.876;2022-08-27T06:02:51;19.5;96.0
22676;DHT22;12521;43.310;21.876;2022-08-27T06:07:27;19.5;96.0
22676;DHT22;12521;43.310;21.876;2022-08-27T06:12:04;19.5;96.0
22676;DHT22;12521;43.310;21.876;2022-08-27T06:16:43;19.7;96.0
22676;DHT22;12521;43.310;21.876;2022-08-27T06:21:20;19.7;96.0
22676;DHT22;12521;43.310;21.876;2022-08-27T06:25:57;20.0;96.0
22676;DHT22;12521;43.310;21.876;2022-08-27T06:30:40;20.0;96.0
22676;DHT22;12521;43.310;21.876;2022-08-27T06:35:17;20.3;96.0
22676;DHT22;12521;43.310;21.876;2022-08-27T06:39:54;20.3;96.0
22676;DHT22;12521;43.310;21.876;2022-08-27T06:44:31;20.6;96.0
22676;DHT22;12521;43.310;21.876;2022-08-27T06:49:10;20.6;96.0
22676;DHT22;12521;43.310;21.876;2022-08-27T06:53:49;20.9;96.0
22676;DHT22;12521;43.310;21.876;2022-08-27T06:58:35;20.9;96.0
22676;DHT22;12521;43.310;21.876;2022-08-27T07:03:12;21.2;96.0
22676;DHT22;12521;43.310;21.876;2022-08-27T07:07:49;21.2;96.0
22676;DHT22;12521;43.310;21.876;2022-08-27T07:12:27;21.2;96.0
22676;DHT22;12521;43.310;21.876;2022-08-27T07:17:05;21.6;96.0
22676;DHT22;12521;43.310;21.876;2022-08-27T07:21:43;21.6;96.0
22676;DHT22;12521;43.310;21.876;2022-08-27T07:26:22;21.9;96.0
22676;DHT22;12521;43.310;21.876;2022-08-27T07:31:00;21.9;96.0
22676;DHT22;12521;43.310;21.876;2022-08-27T07:35:38;22.2;96.0
22676;DHT22;12521;43.310;21.876;2022-08-27T07:40:16;22.2;96.0
22676;DHT22;12521;43.310;21.876;2022-08-27T07:44:53;22.6;96.0
22676;DHT22;12521;43.310;21.876;2022-08-27T07:49:30;22.6;96.0
22676;DHT22;12521;43.310;21.876;2022-08-27T07:54:08;23.1;96.0
22676;DHT22;12521;43.310;21.876;2022-08-27T07:58:45;23.1;96.0
22676;DHT22;12521;43.310;21.876;2022-08-27T08:03:22;23.5;96.0
22676;DHT22;12521;43.310;21.876;2022-08-27T08:08:02;23.5;96.0
22676;DHT22;12521;43.310;21.876;2022-08-27T08:12:39;23.5;96.0
22676;DHT22;12521;43.310;21.876;2022-08-27T08:17:16;23.8;96.0
22676;DHT22;12521;43.310;21.876;2022-08-27T08:21:53;23.8;96.0
22676;DHT22;12521;43.310;21.876;2022-08-27T08:26:30;24.2;96.0
22676;DHT22;12521;43.310;21.876;2022-08-27T08:31:07;24.2;96.0
22676;DHT22;12521;43.310;21.876;2022-08-27T08:35:44;24.6;96.0
22676;DHT22;12521;43.310;21.876;2022-08-27T08:40:30;24.6;96.0
22676;DHT22;12521;43.310;21.876;2022-08-27T08:45:20;25.0;96.0
22676;DHT22;12521;43.310;21.876;2022-08-27T08:50:10;25.0;96.0
22676;DHT22;12521;43.310;21.876;2022-08-27T08:55:10;25.4;96.0
22676;DHT22;12521;43.310;21.876;2022-08-27T09:00:14;25.4;96.0
22676;DHT22;12521;43.310;21.876;2022-08-27T09:04:51;25.7;96.0
22676;DHT22;12521;43.310;21.876;2022-08-27T09:09:34;25.7;96.0
22676;DHT22;12521;43.310;21.876;2022-08-27T09:14:49;26.0;96.0
22676;DHT22;12521;43.310;21.876;2022-08-27T09:19:51;26.0;96.0
22676;DHT22;12521;43.310;21.876;2022-08-27T09:24:36;26.3;96.0
22676;DHT22;12521;43.310;21.876;2022-08-27T09:29:56;26.3;96.0
22676;DHT22;12521;43.310;21.876;2022-08-27T09:34:34;26.6;96.0
22676;DHT22;12521;43.310;21.876;2022-08-27T09:39:27;26.6;96.0
22676;DHT22;12521;43.310;21.876;2022-08-27T09:44:44;27.0;96.0
22676;DHT22;12521;43.310;21.876;2022-08-27T09:49:23;27.0;96.0
22676;DHT22;12521;43.310;21.876;2022-08-27T09:54:03;27.4;96.0
22676;DHT22;12521;43.310;21.876;2022-08-27T09:58:47;27.4;96.0
22676;DHT22;12521;43.310;21.876;2022-08-27T10:03:47;27.8;96.0
22676;DHT22;12521;43.310;21.876;2022-08-27T10:08:46;27.8;96.0
22676;DHT22;12521;43.310;21.876;2022-08-27T10:13:56;28.1;96.0
22676;DHT22;12521;43.310;21.876;2022-08-27T10:19:20;28.1;96.0
22676;DHT22;12521;43.310;21.876;2022-08-27T10:25:03;28.6;96.0
22676;DHT22;12521;43.310;21.876;2022-08-27T10:30:54;28.6;96.0
22676;DHT22;12521;43.310;21.876;2022-08-27T10:36:25;29.1;95.0
22676;DHT22;12521;43.310;21.876;2022-08-27T10:41:58;29.1;95.0
22676;DHT22;12521;43.310;21.876;2022-08-27T10:47:18;29.4;94.0
22676;DHT22;12521;43.310;21.876;2022-08-27T10:52:55;29.8;93.0
22676;DHT22;12521;43.310;21.876;2022-08-27T10:58:28;29.8;93.0
22676;DHT22;12521;43.310;21.876;2022-08-27T11:03:49;30.1;92.0
22676;DHT22;12521;43.310;21.876;2022-08-27T11:08:48;30.1;92.0
22676;DHT22;12521;43.310;21.876;2022-08-27T11:13:47;30.4;90.0
22676;DHT22;12521;43.310;21.876;2022-08-27T11:18:38;30.4;90.0
22676;DHT22;12521;43.310;21.876;2022-08-27T11:23:36;30.8;88.0
22676;DHT22;12521;43.310;21.876;2022-08-27T11:28:30;30.8;88.0
22676;DHT22;12521;43.310;21.876;2022-08-27T11:33:26;31.1;86.0
22676;DHT22;12521;43.310;21.876;2022-08-27T11:38:30;31.1;86.0
22676;DHT22;12521;43.310;21.876;2022-08-27T11:43:31;31.5;82.0
22676;DHT22;12521;43.310;21.876;2022-08-27T11:48:16;31.5;82.0
22676;DHT22;12521;43.310;21.876;2022-08-27T11:53:04;31.9;78.0
22676;DHT22;12521;43.310;21.876;2022-08-27T11:57:43;31.9;78.0
22676;DHT22;12521;43.310;21.876;2022-08-27T12:02:42;31.9;78.0
22676;DHT22;12521;43.310;21.876;2022-08-27T12:07:43;31.9;78.0
22676;DHT22;12521;43.310;21.876;2022-08-27T12:12:34;31.9;78.0
22676;DHT22;12521;43.310;21.876;2022-08-27T12:24:54;32.7;72.0
22676;DHT22;12521;43.310;21.876;2022-08-27T12:29:58;32.7;72.0
22676;DHT22;12521;43.310;21.876;2022-08-27T12:35:11;32.7;72.0
22676;DHT22;12521;43.310;21.876;2022-08-27T12:40:20;32.7;72.0
22676;DHT22;12521;43.310;21.876;2022-08-27T12:44:59;32.8;71.0
22676;DHT22;12521;43.310;21.876;2022-08-27T12:49:54;32.8;71.0
22676;DHT22;12521;43.310;21.876;2022-08-27T12:55:21;32.8;71.0
22676;DHT22;12521;43.310;21.876;2022-08-27T13:00:22;32.8;71.0
22676;DHT22;12521;43.310;21.876;2022-08-27T13:05:06;33.1;71.0
22676;DHT22;12521;43.310;21.876;2022-08-27T13:09:47;33.1;71.0
22676;DHT22;12521;43.310;21.876;2022-08-27T13:14:37;33.4;70.0
22676;DHT22;12521;43.310;21.876;2022-08-27T13:19:29;33.4;70.0
22676;DHT22;12521;43.310;21.876;2022-08-27T13:24:11;33.5;70.0
22676;DHT22;12521;43.310;21.876;2022-08-27T13:28:50;33.5;70.0
22676;DHT22;12521;43.310;21.876;2022-08-27T13:33:36;33.6;70.0
22676;DHT22;12521;43.310;21.876;2022-08-27T13:38:22;33.6;70.0
22676;DHT22;12521;43.310;21.876;2022-08-27T13:43:11;34.0;69.0
22676;DHT22;12521;43.310;21.876;2022-08-27T13:47:53;34.0;69.0
22676;DHT22;12521;43.310;21.876;2022-08-27T13:52:40;34.0;69.0
22676;DHT22;12521;43.310;21.876;2022-08-27T13:57:38;34.3;68.0
22676;DHT22;12521;43.310;21.876;2022-08-27T14:02:27;34.3;68.0
22676;DHT22;12521;43.310;21.876;2022-08-27T14:07:21;34.4;68.0
22676;DHT22;12521;43.310;21.876;2022-08-27T14:12:07;34.4;68.0
22676;DHT22;12521;43.310;21.876;2022-08-27T14:16:55;34.6;67.0
22676;DHT22;12521;43.310;21.876;2022-08-27T14:21:38;34.6;67.0
22676;DHT22;12521;43.310;21.876;2022-08-27T14:26:15;34.8;66.0
22676;DHT22;12521;43.310;21.876;2022-08-27T14:30:52;34.8;66.0
22676;DHT22;12521;43.310;21.876;2022-08-27T14:35:34;34.9;65.0
22676;DHT22;12521;43.310;21.876;2022-08-27T14:40:14;34.9;65.0
22676;DHT22;12521;43.310;21.876;2022-08-27T14:44:51;35.0;64.0
22676;DHT22;12521;43.310;21.876;2022-08-27T14:49:39;35.0;64.0
22676;DHT22;12521;43.310;21.876;2022-08-27T14:54:22;35.0;64.0
22676;DHT22;12521;43.310;21.876;2022-08-27T14:58:59;35.0;64.0
22676;DHT22;12521;43.310;21.876;2022-08-27T15:03:46;35.0;64.0
22676;DHT22;12521;43.310;21.876;2022-08-27T15:08:27;35.0;64.0
22676;DHT22;12521;43.310;21.876;2022-08-27T15:13:05;35.0;64.0
22676;DHT22;12521;43.310;21.876;2022-08-27T15:17:44;35.0;64.0
22676;DHT22;12521;43.310;21.876;2022-08-27T15:22:33;35.0;64.0
22676;DHT22;12521;43.310;21.876;2022-08-27T15:27:20;35.0;65.0
22676;DHT22;12521;43.310;21.876;2022-08-27T15:32:00;35.0;65.0
22676;DHT22;12521;43.310;21.876;2022-08-27T15:36:41;34.9;65.0
22676;DHT22;12521;43.310;21.876;2022-08-27T15:41:20;34.9;65.0
22676;DHT22;12521;43.310;21.876;2022-08-27T15:45:57;34.8;66.0
22676;DHT22;12521;43.310;21.876;2022-08-27T15:50:35;34.8;66.0
22676;DHT22;12521;43.310;21.876;2022-08-27T15:55:27;34.8;66.0
22676;DHT22;12521;43.310;21.876;2022-08-27T16:00:14;34.8;66.0
22676;DHT22;12521;43.310;21.876;2022-08-27T16:04:54;35.4;67.0
22676;DHT22;12521;43.310;21.876;2022-08-27T16:09:31;35.4;67.0
22676;DHT22;12521;43.310;21.876;2022-08-27T16:14:08;36.1;67.0
22676;DHT22;12521;43.310;21.876;2022-08-27T16:18:45;36.1;67.0
22676;DHT22;12521;43.310;21.876;2022-08-27T16:23:22;35.0;69.0
22676;DHT22;12521;43.310;21.876;2022-08-27T16:28:02;35.0;69.0
22676;DHT22;12521;43.310;21.876;2022-08-27T16:32:39;35.0;69.0
22676;DHT22;12521;43.310;21.876;2022-08-27T16:37:16;33.9;71.0
22676;DHT22;12521;43.310;21.876;2022-08-27T16:41:52;33.9;71.0
22676;DHT22;12521;43.310;21.876;2022-08-27T16:46:30;32.5;74.0
22676;DHT22;12521;43.310;21.876;2022-08-27T16:51:19;32.5;74.0
22676;DHT22;12521;43.310;21.876;2022-08-27T16:55:55;31.1;77.0
22676;DHT22;12521;43.310;21.876;2022-08-27T17:00:31;31.1;77.0
22676;DHT22;12521;43.310;21.876;2022-08-27T17:05:09;30.2;80.0
22676;DHT22;12521;43.310;21.876;2022-08-27T17:09:45;30.2;80.0
22676;DHT22;12521;43.310;21.876;2022-08-27T17:14:23;29.3;82.0
22676;DHT22;12521;43.310;21.876;2022-08-27T17:19:05;29.3;82.0
22676;DHT22;12521;43.310;21.876;2022-08-27T17:23:51;28.7;84.0
22676;DHT22;12521;43.310;21.876;2022-08-27T17:28:29;28.7;84.0
22676;DHT22;12521;43.310;21.876;2022-08-27T17:33:07;28.7;84.0
22676;DHT22;12521;43.310;21.876;2022-08-27T17:37:51;28.1;86.0
22676;DHT22;12521;43.310;21.876;2022-08-27T17:42:30;28.1;86.0
22676;DHT22;12521;43.310;21.876;2022-08-27T17:47:08;27.6;88.0
22676;DHT22;12521;43.310;21.876;2022-08-27T17:51:54;27.6;88.0
22676;DHT22;12521;43.310;21.876;2022-08-27T17:56:45;27.0;90.0
22676;DHT22;12521;43.310;21.876;2022-08-27T18:01:30;27.0;90.0
22676;DHT22;12521;43.310;21.876;2022-08-27T18:06:08;26.7;91.0
22676;DHT22;12521;43.310;21.876;2022-08-27T18:10:45;26.7;91.0
22676;DHT22;12521;43.310;21.876;2022-08-27T18:15:30;26.4;92.0
22676;DHT22;12521;43.310;21.876;2022-08-27T18:20:21;26.4;92.0
22676;DHT22;12521;43.310;21.876;2022-08-27T18:25:08;26.2;94.0
22676;DHT22;12521;43.310;21.876;2022-08-27T18:29:49;26.2;94.0
22676;DHT22;12521;43.310;21.876;2022-08-27T18:34:27;26.0;95.0
22676;DHT22;12521;43.310;21.876;2022-08-27T18:39:04;26.0;95.0
22676;DHT22;12521;43.310;21.876;2022-08-27T18:43:41;25.8;96.0
22676;DHT22;12521;43.310;21.876;2022-08-27T18:48:21;25.8;96.0
22676;DHT22;12521;43.310;21.876;2022-08-27T18:52:58;25.8;96.0
22676;DHT22;12521;43.310;21.876;2022-08-27T18:57:37;25.6;96.0
22676;DHT22;12521;43.310;21.876;2022-08-27T19:02:20;25.6;96.0
22676;DHT22;12521;43.310;21.876;2022-08-27T19:06:56;25.5;96.0
22676;DHT22;12521;43.310;21.876;2022-08-27T19:11:33;25.5;96.0
22676;DHT22;12521;43.310;21.876;2022-08-27T19:16:27;25.3;96.0
22676;DHT22;12521;43.310;21.876;2022-08-27T19:21:08;25.3;96.0
22676;DHT22;12521;43.310;21.876;2022-08-27T19:25:45;25.1;96.0
22676;DHT22;12521;43.310;21.876;2022-08-27T19:30:22;25.1;96.0
22676;DHT22;12521;43.310;21.876;2022-08-27T19:34:58;24.9;96.0
22676;DHT22;12521;43.310;21.876;2022-08-27T19:39:37;24.9;96.0
22676;DHT22;12521;43.310;21.876;2022-08-27T19:44:13;24.6;96.0
22676;DHT22;12521;43.310;21.876;2022-08-27T19:48:51;24.6;96.0
22676;DHT22;12521;43.310;21.876;2022-08-27T19:53:29;24.4;96.0
22676;DHT22;12521;43.310;21.876;2022-08-27T19:58:06;24.4;96.0
22676;DHT22;12521;43.310;21.876;2022-08-27T20:02:43;24.4;96.0
22676;DHT22;12521;43.310;21.876;2022-08-27T20:07:21;24.1;96.0
22676;DHT22;12521;43.310;21.876;2022-08-27T20:11:58;24.1;96.0
22676;DHT22;12521;43.310;21.876;2022-08-27T20:16:35;23.8;96.0
22676;DHT22;12521;43.310;21.876;2022-08-27T20:21:11;23.8;96.0
22676;DHT22;12521;43.310;21.876;2022-08-27T20:25:48;23.6;96.0
22676;DHT22;12521;43.310;21.876;2022-08-27T20:30:29;23.6;96.0
22676;DHT22;12521;43.310;21.876;2022-08-27T20:35:10;23.5;96.0
22676;DHT22;12521;43.310;21.876;2022-08-27T20:39:50;23.5;96.0
22676;DHT22;12521;43.310;21.876;2022-08-27T20:44:27;23.4;96.0
22676;DHT22;12521;43.310;21.876;2022-08-27T20:49:05;23.4;96.0
22676;DHT22;12521;43.310;21.876;2022-08-27T20:53:42;23.3;96.0
22676;DHT22;12521;43.310;21.876;2022-08-27T20:58:20;23.3;96.0
22676;DHT22;12521;43.310;21.876;2022-08-27T21:02:57;23.3;96.0
22676;DHT22;12521;43.310;21.876;2022-08-27T21:07:34;23.2;96.0
22676;DHT22;12521;43.310;21.876;2022-08-27T21:12:12;23.2;96.0
22676;DHT22;12521;43.310;21.876;2022-08-27T21:16:49;23.1;96.0
22676;DHT22;12521;43.310;21.876;2022-08-27T21:21:26;23.1;96.0
22676;DHT22;12521;43.310;21.876;2022-08-27T21:26:11;23.0;96.0
22676;DHT22;12521;43.310;21.876;2022-08-27T21:30:49;23.0;96.0
22676;DHT22;12521;43.310;21.876;2022-08-27T21:35:31;22.8;96.0
22676;DHT22;12521;43.310;21.876;2022-08-27T21:40:10;22.8;96.0
22676;DHT22;12521;43.310;21.876;2022-08-27T21:44:47;22.7;96.0
22676;DHT22;12521;43.310;21.876;2022-08-27T21:49:24;22.7;96.0
22676;DHT22;12521;43.310;21.876;2022-08-27T21:54:01;22.6;96.0
22676;DHT22;12521;43.310;21.876;2022-08-27T21:58:38;22.6;96.0
22676;DHT22;12521;43.310;21.876;2022-08-27T22:03:21;22.6;96.0
22676;DHT22;12521;43.310;21.876;2022-08-27T22:07:59;22.4;96.0
22676;DHT22;12521;43.310;21.876;2022-08-27T22:12:35;22.4;96.0
22676;DHT22;12521;43.310;21.876;2022-08-27T22:17:11;22.2;96.0
22676;DHT22;12521;43.310;21.876;2022-08-27T22:21:48;22.2;96.0
22676;DHT22;12521;43.310;21.876;2022-08-27T22:26:25;22.0;96.0
22676;DHT22;12521;43.310;21.876;2022-08-27T22:31:01;22.0;96.0
22676;DHT22;12521;43.310;21.876;2022-08-27T22:35:39;21.8;96.0
22676;DHT22;12521;43.310;21.876;2022-08-27T22:40:25;21.8;96.0
22676;DHT22;12521;43.310;21.876;2022-08-27T22:45:09;21.8;96.0
22676;DHT22;12521;43.310;21.876;2022-08-27T22:49:47;21.8;96.0
22676;DHT22;12521;43.310;21.876;2022-08-27T22:54:24;21.7;96.0
22676;DHT22;12521;43.310;21.876;2022-08-27T22:59:03;21.7;96.0
22676;DHT22;12521;43.310;21.876;2022-08-27T23:03:40;21.4;96.0
22676;DHT22;12521;43.310;21.876;2022-08-27T23:08:17;21.4;96.0
22676;DHT22;12521;43.310;21.876;2022-08-27T23:12:56;21.4;96.0
22676;DHT22;12521;43.310;21.876;2022-08-27T23:17:34;21.2;96.0
22676;DHT22;12521;43.310;21.876;2022-08-27T23:22:12;21.2;96.0
22676;DHT22;12521;43.310;21.876;2022-08-27T23:26:49;21.2;96.0
22676;DHT22;12521;43.310;21.876;2022-08-27T23:31:27;21.2;96.0
22676;DHT22;12521;43.310;21.876;2022-08-27T23:36:06;21.2;96.0
22676;DHT22;12521;43.310;21.876;2022-08-27T23:40:48;21.2;96.0
22676;DHT22;12521;43.310;21.876;2022-08-27T23:45:27;21.2;96.0
22676;DHT22;12521;43.310;21.876;2022-08-27T23:50:09;21.2;96.0
22676;DHT22;12521;43.310;21.876;2022-08-27T23:54:47;21.1;96.0
22676;DHT22;12521;43.310;21.876;2022-08-27T23:59:25;21.1;96.0
